Kvitbjoern — LM9158 — position and weather

sailwx.info

Track history (hours):
 
Tides and Currents Weather Stations Pressure Air Temp Water Temp Dewpoint Dewpoint Depression Visibility Wind Speed Wind Dir Waves Ship Positions

Kvitbjoern

Last reported at 2014-Oct-01 13:18 UTC. Time now 2014-Oct-01 14:24 UTC.
Position N 66°22' E 012°34'.

Length 10 m.

Type: Fishing. MMSI: 257454420.

Date/timePositionNaut miles runAvg speedWind from/ knotsBaromVisibWave heightAir tempDewpointWater temp
2014-Oct-01 13:18N 66°22' E 012°34'4 4.8
2014-Oct-01 12:33N 66°22' E 012°25'1 0.8
2014-Oct-01 11:17N 66°21' E 012°23'0 0.5
2014-Oct-01 10:32N 66°22' E 012°23'0 0.2
2014-Oct-01 09:33N 66°22' E 012°23'0 0.2
2014-Oct-01 08:32N 66°22' E 012°24'1 0.5
2014-Oct-01 07:22N 66°23' E 012°24'1 0.6
2014-Oct-01 06:33N 66°23' E 012°25'1 0.7
2014-Oct-01 05:25N 66°23' E 012°26'2 2.3
2014-Oct-01 04:33N 66°22' E 012°22'0 0.0
2014-Sep-30 16:30N 66°22' E 012°21'3 3.1
2014-Sep-30 15:33N 66°22' E 012°29'0 0.1
2014-Sep-30 13:32N 66°22' E 012°29'2 1.7
2014-Sep-30 12:23N 66°23' E 012°26'1 1.2
2014-Sep-30 11:31N 66°23' E 012°24'0 0.3
2014-Sep-30 10:33N 66°22' E 012°24'0 0.4
2014-Sep-30 09:32N 66°22' E 012°24'0 0.3
2014-Sep-30 08:30N 66°22' E 012°23'0 0.5
2014-Sep-30 07:33N 66°22' E 012°23'0 0.2
2014-Sep-30 06:29N 66°21' E 012°23'0 0.2
2014-Sep-30 05:28N 66°21' E 012°23'1 1.2
2014-Sep-30 04:34N 66°22' E 012°22'  
2014-Sep-25 15:17N 66°22' E 012°21'3 4.5
2014-Sep-25 14:33N 66°22' E 012°30'2 1.0
2014-Sep-25 12:33N 66°23' E 012°27'0 0.4
2014-Sep-25 11:30N 66°24' E 012°26'0 0.3
2014-Sep-25 10:33N 66°23' E 012°26'1 1.5
2014-Sep-25 09:34N 66°22' E 012°24'0 0.4
2014-Sep-25 08:29N 66°22' E 012°23'0 0.0
2014-Sep-25 07:32N 66°22' E 012°23'1 0.5
2014-Sep-25 06:31N 66°22' E 012°23'0 0.3
2014-Sep-25 05:33N 66°21' E 012°23'0 0.3
2014-Sep-25 04:33N 66°22' E 012°24'1 0.1
2014-Sep-24 16:28N 66°22' E 012°21'1 1.5
2014-Sep-24 15:32N 66°23' E 012°25'1 1.1
2014-Sep-24 14:33N 66°22' E 012°28'2 0.9
2014-Sep-24 12:31N 66°24' E 012°30'2 1.7
2014-Sep-24 11:32N 66°24' E 012°26'1 1.3
2014-Sep-24 10:33N 66°23' E 012°24'0 0.1
2014-Sep-24 09:28N 66°23' E 012°24'1 0.7
2014-Sep-24 08:33N 66°22' E 012°23'0 0.2
2014-Sep-24 07:30N 66°22' E 012°23'0 0.4
2014-Sep-24 06:30N 66°22' E 012°23'0 0.4
2014-Sep-24 05:33N 66°22' E 012°24'0 0.2
2014-Sep-24 04:33N 66°21' E 012°23'1 1.1
2014-Sep-24 03:33N 66°22' E 012°21'0 0.0
2014-Sep-23 15:33N 66°22' E 012°21'2 2.3
2014-Sep-23 14:33N 66°23' E 012°27'2 1.2
2014-Sep-23 12:33N 66°22' E 012°31'3 3.0
2014-Sep-23 11:28N 66°22' E 012°23'0 0.3
2014-Sep-23 10:33N 66°22' E 012°23'0 0.2
2014-Sep-23 09:28N 66°22' E 012°23'1 0.5
2014-Sep-23 08:25N 66°22' E 012°24'0 0.4
2014-Sep-23 07:33N 66°23' E 012°24'1 1.0
2014-Sep-23 06:25N 66°23' E 012°26'0 0.3
2014-Sep-23 05:33N 66°24' E 012°26'0 0.2
2014-Sep-23 04:30N 66°23' E 012°26'2 2.2
2014-Sep-23 03:33N 66°22' E 012°22'0 0.0
2014-Sep-22 15:17N 66°22' E 012°21'5 5.2
2014-Sep-22 14:14N 66°23' E 012°35'3 1.6
2014-Sep-22 12:32N 66°22' E 012°29'2 2.1
2014-Sep-22 11:30N 66°23' E 012°25'0 0.5
2014-Sep-22 10:33N 66°22' E 012°24'0 0.1
2014-Sep-22 09:29N 66°22' E 012°24'0 0.5
2014-Sep-22 08:32N 66°22' E 012°23'0 0.5
2014-Sep-22 07:33N 66°22' E 012°23'0 0.1
2014-Sep-22 06:33N 66°22' E 012°23'0 0.3
2014-Sep-22 05:28N 66°21' E 012°24'1 1.3
2014-Sep-22 04:29N 66°22' E 012°21'  
Track history (hours):
 
Tides and Currents Weather Stations Pressure Air Temp Water Temp Dewpoint Dewpoint Depression Visibility Wind Speed Wind Dir Waves Ship Positions

Kvitbjoern

Last reported at 2014-Oct-01 13:18 UTC. Time now 2014-Oct-01 14:24 UTC.
Position N 66°22' E 012°34'.

Length 10 m.

Type: Fishing. MMSI: 257454420.

Date/timePositionNaut miles runAvg speedWind from/ knotsBaromVisibWave heightAir tempDewpointWater temp
2014-Oct-01 13:18N 66°22' E 012°34'4 4.8
2014-Oct-01 12:33N 66°22' E 012°25'1 0.8
2014-Oct-01 11:17N 66°21' E 012°23'0 0.5
2014-Oct-01 10:32N 66°22' E 012°23'0 0.2
2014-Oct-01 09:33N 66°22' E 012°23'0 0.2
2014-Oct-01 08:32N 66°22' E 012°24'1 0.5
2014-Oct-01 07:22N 66°23' E 012°24'1 0.6
2014-Oct-01 06:33N 66°23' E 012°25'1 0.7
2014-Oct-01 05:25N 66°23' E 012°26'2 2.3
2014-Oct-01 04:33N 66°22' E 012°22'0 0.0
2014-Sep-30 16:30N 66°22' E 012°21'3 3.1
2014-Sep-30 15:33N 66°22' E 012°29'0 0.1
2014-Sep-30 13:32N 66°22' E 012°29'2 1.7
2014-Sep-30 12:23N 66°23' E 012°26'1 1.2
2014-Sep-30 11:31N 66°23' E 012°24'0 0.3
2014-Sep-30 10:33N 66°22' E 012°24'0 0.4
2014-Sep-30 09:32N 66°22' E 012°24'0 0.3
2014-Sep-30 08:30N 66°22' E 012°23'0 0.5
2014-Sep-30 07:33N 66°22' E 012°23'0 0.2
2014-Sep-30 06:29N 66°21' E 012°23'0 0.2
2014-Sep-30 05:28N 66°21' E 012°23'1 1.2
2014-Sep-30 04:34N 66°22' E 012°22'  
2014-Sep-25 15:17N 66°22' E 012°21'3 4.5
2014-Sep-25 14:33N 66°22' E 012°30'2 1.0
2014-Sep-25 12:33N 66°23' E 012°27'0 0.4
2014-Sep-25 11:30N 66°24' E 012°26'0 0.3
2014-Sep-25 10:33N 66°23' E 012°26'1 1.5
2014-Sep-25 09:34N 66°22' E 012°24'0 0.4
2014-Sep-25 08:29N 66°22' E 012°23'0 0.0
2014-Sep-25 07:32N 66°22' E 012°23'1 0.5
2014-Sep-25 06:31N 66°22' E 012°23'0 0.3
2014-Sep-25 05:33N 66°21' E 012°23'0 0.3
2014-Sep-25 04:33N 66°22' E 012°24'1 0.1
2014-Sep-24 16:28N 66°22' E 012°21'1 1.5
2014-Sep-24 15:32N 66°23' E 012°25'1 1.1
2014-Sep-24 14:33N 66°22' E 012°28'2 0.9
2014-Sep-24 12:31N 66°24' E 012°30'2 1.7
2014-Sep-24 11:32N 66°24' E 012°26'1 1.3
2014-Sep-24 10:33N 66°23' E 012°24'0 0.1
2014-Sep-24 09:28N 66°23' E 012°24'1 0.7
2014-Sep-24 08:33N 66°22' E 012°23'0 0.2
2014-Sep-24 07:30N 66°22' E 012°23'0 0.4
2014-Sep-24 06:30N 66°22' E 012°23'0 0.4
2014-Sep-24 05:33N 66°22' E 012°24'0 0.2
2014-Sep-24 04:33N 66°21' E 012°23'1 1.1
2014-Sep-24 03:33N 66°22' E 012°21'0 0.0
2014-Sep-23 15:33N 66°22' E 012°21'2 2.3
2014-Sep-23 14:33N 66°23' E 012°27'2 1.2
2014-Sep-23 12:33N 66°22' E 012°31'3 3.0
2014-Sep-23 11:28N 66°22' E 012°23'0 0.3
2014-Sep-23 10:33N 66°22' E 012°23'0 0.2
2014-Sep-23 09:28N 66°22' E 012°23'1 0.5
2014-Sep-23 08:25N 66°22' E 012°24'0 0.4
2014-Sep-23 07:33N 66°23' E 012°24'1 1.0
2014-Sep-23 06:25N 66°23' E 012°26'0 0.3
2014-Sep-23 05:33N 66°24' E 012°26'0 0.2
2014-Sep-23 04:30N 66°23' E 012°26'2 2.2
2014-Sep-23 03:33N 66°22' E 012°22'0 0.0
2014-Sep-22 15:17N 66°22' E 012°21'5 5.2
2014-Sep-22 14:14N 66°23' E 012°35'3 1.6
2014-Sep-22 12:32N 66°22' E 012°29'2 2.1
2014-Sep-22 11:30N 66°23' E 012°25'0 0.5
2014-Sep-22 10:33N 66°22' E 012°24'0 0.1
2014-Sep-22 09:29N 66°22' E 012°24'0 0.5
2014-Sep-22 08:32N 66°22' E 012°23'0 0.5
2014-Sep-22 07:33N 66°22' E 012°23'0 0.1
2014-Sep-22 06:33N 66°22' E 012°23'0 0.3
2014-Sep-22 05:28N 66°21' E 012°24'1 1.3
2014-Sep-22 04:29N 66°22' E 012°21'  

Dump ship's entire track history